createdAt,value
2023-02-18T00:01:01.453Z,2.17
2023-02-18T00:07:06.974Z,1.75
2023-02-18T00:09:34.149Z,1.80
2023-02-18T00:12:01.189Z,1.95
2023-02-18T00:14:28.209Z,1.90
2023-02-18T00:16:55.234Z,2.50
2023-02-18T00:19:22.354Z,2.40
2023-02-18T00:21:49.518Z,1.90
2023-02-18T00:24:17.059Z,2.28
2023-02-18T00:26:45.363Z,2.10
2023-02-18T00:29:12.851Z,2.22
2023-02-18T00:31:40.590Z,2.15
2023-02-18T00:34:08.037Z,1.90
2023-02-18T00:36:36.033Z,1.83
2023-02-18T00:39:06.130Z,1.85
2023-02-18T00:41:34.198Z,2.40
2023-02-18T00:44:01.584Z,2.00
2023-02-18T00:46:32.696Z,2.00
2023-02-18T00:49:01.436Z,2.03
2023-02-18T00:51:28.624Z,1.80
2023-02-18T00:53:56.310Z,1.83
2023-02-18T00:56:24.526Z,1.95
2023-02-18T00:58:52.317Z,2.08
2023-02-18T01:01:20.218Z,2.00
2023-02-18T01:03:47.841Z,1.90
2023-02-18T01:06:15.991Z,1.90
2023-02-18T01:08:43.399Z,2.20
2023-02-18T01:11:12.236Z,2.20
2023-02-18T01:13:39.950Z,1.80
2023-02-18T01:16:17.239Z,2.17
2023-02-18T01:18:46.441Z,1.80
2023-02-18T01:21:13.586Z,1.95
2023-02-18T01:23:42.785Z,2.00
2023-02-18T01:26:11.498Z,2.22
2023-02-18T01:28:40.905Z,1.90
2023-02-18T01:31:11.361Z,1.80
2023-02-18T01:50:09.648Z,1.88
2023-02-18T01:59:36.445Z,1.73
2023-02-18T02:02:04.373Z,2.08
2023-02-18T02:08:02.197Z,1.88
2023-02-18T02:10:42.270Z,1.73
2023-02-18T02:13:24.932Z,1.75
2023-02-18T02:16:09.667Z,1.67
2023-02-18T02:18:43.073Z,1.90
2023-02-18T02:21:41.277Z,1.90
2023-02-18T02:24:41.848Z,1.92
2023-02-18T02:29:50.933Z,1.45
2023-02-18T02:32:33.317Z,1.80
2023-02-18T02:35:29.083Z,1.65
2023-02-18T02:38:02.330Z,1.70
2023-02-18T02:40:35.399Z,2.00
2023-02-18T02:43:28.271Z,1.60
2023-02-18T02:46:03.500Z,2.50
2023-02-18T02:49:00.926Z,1.88
2023-02-18T02:51:43.024Z,2.30
2023-02-18T02:54:22.975Z,2.10
2023-02-18T02:56:50.605Z,1.92
2023-02-18T02:59:27.120Z,2.00
2023-02-18T03:01:57.850Z,2.45
2023-02-18T03:05:00.384Z,2.30
2023-02-18T03:07:46.781Z,2.08
2023-02-18T03:10:38.381Z,1.90
2023-02-18T03:13:24.395Z,2.40
2023-02-18T03:16:08.120Z,2.08
2023-02-18T03:18:38.373Z,1.92
2023-02-18T03:21:08.552Z,2.03
2023-02-18T03:23:42.172Z,1.98
2023-02-18T03:41:24.665Z,1.80
2023-02-18T03:44:16.815Z,1.85
2023-02-18T03:46:45.520Z,1.77
2023-02-18T04:01:57.007Z,1.73
2023-02-18T04:04:24.488Z,1.50
2023-02-18T04:06:51.530Z,1.40
2023-02-18T04:09:18.567Z,1.20
2023-02-18T04:11:45.532Z,1.23
2023-02-18T04:14:15.056Z,1.55
2023-02-18T04:16:43.017Z,1.40
2023-02-18T04:19:10.391Z,1.67
2023-02-18T04:21:37.568Z,1.65
2023-02-18T04:24:04.807Z,1.88
2023-02-18T04:26:31.958Z,1.50
2023-02-18T04:28:58.972Z,1.48
2023-02-18T04:31:26.290Z,1.83
2023-02-18T04:33:53.384Z,1.58
2023-02-18T04:36:20.527Z,1.65
2023-02-18T04:38:47.605Z,1.90
2023-02-18T04:41:14.610Z,1.80
2023-02-18T04:43:41.622Z,1.77
2023-02-18T04:46:09.027Z,1.80
2023-02-18T04:48:36.394Z,1.55
2023-02-18T04:51:03.878Z,1.90
2023-02-18T04:53:31.054Z,1.95
2023-02-18T04:55:58.122Z,1.70
2023-02-18T04:58:25.598Z,1.55
2023-02-18T05:00:54.035Z,1.52
2023-02-18T05:03:21.206Z,1.60
2023-02-18T05:05:48.199Z,1.88
2023-02-18T05:08:16.415Z,1.60
2023-02-18T05:10:43.427Z,1.63
2023-02-18T05:13:10.521Z,1.90
2023-02-18T05:16:06.872Z,1.50
2023-02-18T05:18:53.362Z,1.45
2023-02-18T05:21:27.166Z,1.63
2023-02-18T05:23:54.211Z,1.60
2023-02-18T05:26:21.283Z,1.35
2023-02-18T05:28:48.353Z,1.40
2023-02-18T05:31:15.541Z,1.30
2023-02-18T05:33:42.857Z,1.35
2023-02-18T05:36:10.271Z,1.60
2023-02-18T05:38:37.446Z,1.52
2023-02-18T05:41:04.623Z,1.30
2023-02-18T05:54:23.250Z,1.20
2023-02-18T05:56:50.897Z,1.48
2023-02-18T06:03:20.344Z,1.40
2023-02-18T06:05:52.809Z,1.35
2023-02-18T06:08:22.488Z,1.33
2023-02-18T06:10:49.609Z,1.10
2023-02-18T06:13:16.861Z,1.30
2023-02-18T06:15:44.133Z,1.40
2023-02-18T06:18:11.204Z,1.17
2023-02-18T06:20:40.171Z,1.05
2023-02-18T06:23:07.696Z,1.10
2023-02-18T06:25:35.201Z,1.20
2023-02-18T06:28:02.448Z,1.10
2023-02-18T06:30:29.980Z,1.05
2023-02-18T06:32:57.160Z,0.90
2023-02-18T06:35:24.512Z,0.93
2023-02-18T06:37:51.682Z,1.13
2023-02-18T06:40:18.974Z,1.38
2023-02-18T06:42:46.061Z,1.05
2023-02-18T06:45:13.295Z,1.10
2023-02-18T06:47:40.434Z,1.25
2023-02-18T06:50:10.842Z,1.70
2023-02-18T06:55:06.682Z,1.10
2023-02-18T06:58:07.728Z,1.20
2023-02-18T07:00:34.843Z,1.23
2023-02-18T07:03:02.205Z,1.63
2023-02-18T07:05:29.453Z,1.40
2023-02-18T07:07:56.778Z,1.35
2023-02-18T07:10:24.147Z,1.50
2023-02-18T07:12:51.339Z,2.13
2023-02-18T07:15:18.516Z,1.45
2023-02-18T07:17:48.561Z,1.65
2023-02-18T07:20:15.774Z,1.60
2023-02-18T07:22:42.841Z,1.73
2023-02-18T07:25:09.792Z,1.73
2023-02-18T07:27:36.893Z,1.42
2023-02-18T07:30:05.287Z,1.05
2023-02-18T07:32:32.499Z,1.25
2023-02-18T07:34:59.696Z,1.10
2023-02-18T07:37:26.990Z,1.10
2023-02-18T07:39:54.085Z,1.10
2023-02-18T07:42:21.112Z,0.98
2023-02-18T07:44:49.987Z,0.90
2023-02-18T07:47:19.908Z,0.77
2023-02-18T07:49:47.364Z,1.10
2023-02-18T07:52:16.238Z,1.20
2023-02-18T07:54:43.621Z,0.80
2023-02-18T07:57:10.740Z,1.10
2023-02-18T07:59:37.775Z,1.27
2023-02-18T08:02:05.729Z,1.00
2023-02-18T08:04:32.866Z,0.90
2023-02-18T08:07:00.043Z,1.20
2023-02-18T08:09:27.271Z,1.13
2023-02-18T08:11:54.317Z,1.17
2023-02-18T08:14:21.444Z,1.13
2023-02-18T08:16:48.627Z,1.17
2023-02-18T08:19:15.940Z,1.02
2023-02-18T08:21:42.897Z,0.98
2023-02-18T08:24:10.107Z,1.30
2023-02-18T08:26:37.310Z,1.50
2023-02-18T08:29:04.723Z,1.27
2023-02-18T08:31:31.988Z,1.10
2023-02-18T08:34:00.718Z,1.00
2023-02-18T08:36:28.576Z,1.00
2023-02-18T08:38:55.596Z,0.80
2023-02-18T08:41:23.144Z,0.80
2023-02-18T08:43:50.294Z,0.90
2023-02-18T08:46:24.839Z,1.08
2023-02-18T08:48:54.364Z,1.00
2023-02-18T08:51:23.157Z,1.00
2023-02-18T08:53:50.493Z,0.70
2023-02-18T08:56:17.876Z,1.00
2023-02-18T08:58:45.234Z,0.80
2023-02-18T09:01:13.494Z,0.70
2023-02-18T09:03:41.281Z,0.80
2023-02-18T09:06:09.180Z,1.00
2023-02-18T09:08:36.263Z,0.70
2023-02-18T09:11:04.981Z,0.90
2023-02-18T09:13:33.654Z,1.13
2023-02-18T09:16:04.514Z,0.90
2023-02-18T09:18:32.744Z,0.70
2023-02-18T09:21:01.075Z,1.00
2023-02-18T09:23:32.804Z,0.77
2023-02-18T09:26:00.269Z,0.80
2023-02-18T09:28:27.587Z,0.75
2023-02-18T09:30:54.774Z,0.80
2023-02-18T09:33:22.043Z,1.10
2023-02-18T09:35:49.204Z,1.45
2023-02-18T09:38:17.597Z,0.82
2023-02-18T09:40:53.553Z,0.77
2023-02-18T09:43:34.831Z,0.80
2023-02-18T09:46:04.541Z,0.70
2023-02-18T09:48:35.325Z,0.80
2023-02-18T09:51:02.633Z,0.70
2023-02-18T09:53:29.753Z,0.70
2023-02-18T09:55:59.673Z,0.70
2023-02-18T09:58:30.465Z,0.80
2023-02-18T10:01:20.493Z,1.15
2023-02-18T10:03:47.824Z,0.80
2023-02-18T10:06:31.971Z,0.88
2023-02-18T10:09:04.408Z,0.80
2023-02-18T10:11:38.015Z,0.80
2023-02-18T10:14:12.767Z,0.70
2023-02-18T10:16:40.189Z,1.33
2023-02-18T10:19:30.469Z,0.80
2023-02-18T10:21:58.345Z,0.90
2023-02-18T10:24:51.772Z,0.70
2023-02-18T10:27:39.437Z,0.70
2023-02-18T10:30:15.635Z,0.60
2023-02-18T10:32:45.898Z,1.10
2023-02-18T10:35:15.900Z,1.00
2023-02-18T10:38:07.662Z,1.30
2023-02-18T10:41:00.682Z,1.15
2023-02-18T10:43:47.551Z,0.88
2023-02-18T10:46:45.261Z,0.88
2023-02-18T10:49:24.398Z,0.93
2023-02-18T10:51:56.269Z,1.35
2023-02-18T10:54:26.201Z,1.00
2023-02-18T10:56:59.418Z,0.60
2023-02-18T10:59:32.406Z,0.80
2023-02-18T11:02:03.084Z,1.05
2023-02-18T11:04:41.482Z,0.80
2023-02-18T11:07:15.754Z,0.90
2023-02-18T11:09:51.064Z,0.60
2023-02-18T11:12:24.307Z,0.80
2023-02-18T11:15:14.026Z,0.70
2023-02-18T11:17:50.846Z,0.43
2023-02-18T11:20:34.840Z,0.88
2023-02-18T11:23:07.927Z,0.85
2023-02-18T11:25:37.373Z,0.77
2023-02-18T11:28:33.364Z,1.10
2023-02-18T11:31:02.982Z,0.88
2023-02-18T11:33:41.312Z,0.60
2023-02-18T11:36:31.399Z,0.90
2023-02-18T11:39:04.858Z,0.75
2023-02-18T11:41:38.849Z,0.90
2023-02-18T11:44:27.499Z,1.17
2023-02-18T11:47:22.791Z,0.90
2023-02-18T11:50:08.867Z,1.10
2023-02-18T11:52:38.530Z,0.90
2023-02-18T11:55:05.805Z,0.80
2023-02-18T11:57:40.038Z,0.80
2023-02-18T12:00:36.621Z,0.80
2023-02-18T12:03:24.754Z,0.80
2023-02-18T12:05:52.751Z,1.15
2023-02-18T12:08:22.857Z,1.35
2023-02-18T12:10:53.583Z,1.20
2023-02-18T12:13:35.048Z,1.30
2023-02-18T12:16:36.999Z,1.30
2023-02-18T12:19:31.283Z,1.00
2023-02-18T12:22:19.995Z,1.15
2023-02-18T12:24:52.782Z,1.23
2023-02-18T12:27:42.466Z,1.20
2023-02-18T12:30:35.276Z,1.02
2023-02-18T12:33:31.863Z,0.98
2023-02-18T12:36:20.818Z,0.80
2023-02-18T12:38:57.009Z,1.33
2023-02-18T12:41:35.968Z,0.90
2023-02-18T12:44:08.861Z,0.80
2023-02-18T12:46:41.936Z,0.63
2023-02-18T12:49:12.089Z,0.80
2023-02-18T12:52:05.362Z,1.65
2023-02-18T12:54:43.726Z,0.70
2023-02-18T12:57:23.193Z,0.60
2023-02-18T13:00:27.815Z,0.40
2023-02-18T13:03:19.792Z,0.65
2023-02-18T13:06:17.623Z,0.82
2023-02-18T13:09:03.534Z,0.70
2023-02-18T13:11:52.191Z,0.90
2023-02-18T13:14:46.431Z,1.00
2023-02-18T13:17:14.969Z,1.25
2023-02-18T13:20:14.946Z,1.10
2023-02-18T13:22:42.474Z,1.23
2023-02-18T13:25:13.685Z,1.17
2023-02-18T13:27:43.721Z,1.17
2023-02-18T13:30:20.036Z,1.08
2023-02-18T13:33:05.737Z,1.90
2023-02-18T13:35:49.032Z,1.65
2023-02-18T13:38:38.077Z,1.30
2023-02-18T13:41:05.756Z,2.17
2023-02-18T13:43:35.442Z,1.60
2023-02-18T13:46:23.155Z,1.48
2023-02-18T13:48:55.114Z,1.20
2023-02-18T13:51:46.746Z,1.10
2023-02-18T13:54:15.479Z,0.90
2023-02-18T13:56:45.674Z,1.00
2023-02-18T13:59:31.250Z,0.73
2023-02-18T14:02:20.833Z,0.93
2023-02-18T14:04:55.942Z,1.10
2023-02-18T14:07:44.107Z,0.82
2023-02-18T14:10:17.013Z,1.13
2023-02-18T14:12:55.966Z,0.70
2023-02-18T14:15:22.987Z,0.93
2023-02-18T14:17:59.142Z,0.50
2023-02-18T14:20:41.867Z,0.80
2023-02-18T14:23:32.945Z,0.90
2023-02-18T14:26:19.338Z,1.00
2023-02-18T14:28:52.608Z,1.17
2023-02-18T14:31:34.261Z,0.82
2023-02-18T14:34:04.397Z,1.10
2023-02-18T14:36:49.948Z,0.90
2023-02-18T14:39:37.715Z,1.00
2023-02-18T14:42:23.683Z,1.10
2023-02-18T14:45:09.703Z,1.20
2023-02-18T14:48:13.260Z,1.08
2023-02-18T14:50:44.283Z,1.30
2023-02-18T14:53:18.768Z,1.10
2023-02-18T14:55:49.989Z,0.70
2023-02-18T14:58:26.304Z,1.20
2023-02-18T15:00:53.342Z,1.02
2023-02-18T15:03:22.520Z,1.20
2023-02-18T15:05:51.687Z,1.00
2023-02-18T15:08:24.947Z,1.10
2023-02-18T15:11:03.704Z,1.35
2023-02-18T15:13:44.164Z,1.63
2023-02-18T15:18:55.959Z,0.70
2023-02-18T15:21:37.976Z,1.40
2023-02-18T15:24:34.272Z,1.10
2023-02-18T15:27:13.769Z,0.80
2023-02-18T15:29:41.081Z,1.40
2023-02-18T15:32:40.826Z,0.90
2023-02-18T15:35:17.989Z,0.90
2023-02-18T15:37:46.964Z,1.50
2023-02-18T15:40:16.205Z,1.13
2023-02-18T15:42:46.168Z,0.98
2023-02-18T15:45:18.602Z,0.93
2023-02-18T15:47:48.810Z,1.48
2023-02-18T15:50:20.836Z,0.80
2023-02-18T15:52:48.792Z,1.70
2023-02-18T15:55:35.326Z,1.65
2023-02-18T15:58:10.930Z,1.65
2023-02-18T16:00:42.387Z,1.40
2023-02-18T16:03:13.794Z,1.50
2023-02-18T16:05:44.284Z,1.30
2023-02-18T16:08:17.956Z,0.93
2023-02-18T16:10:54.735Z,0.90
2023-02-18T16:13:22.589Z,1.58
2023-02-18T16:15:51.712Z,1.10
2023-02-18T16:18:38.606Z,2.30
2023-02-18T16:21:24.307Z,1.50
2023-02-18T16:23:58.699Z,2.58
2023-02-18T16:26:38.060Z,1.88
2023-02-18T16:29:15.580Z,1.55
2023-02-18T16:31:43.590Z,1.60
2023-02-18T16:34:10.689Z,2.05
2023-02-18T16:36:37.773Z,1.60
2023-02-18T16:39:04.865Z,1.45
2023-02-18T16:41:31.867Z,1.75
2023-02-18T16:43:58.986Z,1.38
2023-02-18T16:46:26.507Z,1.70
2023-02-18T16:48:55.884Z,1.80
2023-02-18T16:51:32.179Z,1.55
2023-02-18T16:53:59.489Z,1.50
2023-02-18T16:56:30.907Z,1.70
2023-02-18T16:58:57.972Z,1.52
2023-02-18T17:01:38.573Z,1.70
2023-02-18T17:04:06.182Z,1.50
2023-02-18T17:06:33.607Z,1.50
2023-02-18T17:09:01.201Z,1.52
2023-02-18T17:11:35.380Z,1.63
2023-02-18T17:14:05.248Z,1.67
2023-02-18T17:16:32.597Z,1.63
2023-02-18T17:18:59.982Z,1.80
2023-02-18T17:21:27.072Z,1.83
2023-02-18T17:23:54.179Z,2.33
2023-02-18T17:26:28.308Z,1.70
2023-02-18T17:28:57.280Z,1.95
2023-02-18T17:31:30.896Z,1.30
2023-02-18T17:34:01.039Z,1.23
2023-02-18T17:36:28.125Z,1.00
2023-02-18T17:38:55.280Z,2.00
2023-02-18T17:41:22.709Z,1.35
2023-02-18T17:43:49.689Z,1.40
2023-02-18T17:46:18.999Z,1.20
2023-02-18T17:48:47.173Z,1.23
2023-02-18T17:51:25.799Z,1.40
2023-02-18T17:53:52.989Z,1.13
2023-02-18T17:56:20.300Z,1.52
2023-02-18T17:58:49.077Z,1.58
2023-02-18T18:01:17.239Z,1.40
2023-02-18T18:03:44.494Z,1.48
2023-02-18T18:06:17.465Z,1.50
2023-02-18T18:08:44.963Z,1.50
2023-02-18T18:11:19.900Z,1.30
2023-02-18T18:13:47.434Z,1.60
2023-02-18T18:16:17.127Z,1.40
2023-02-18T18:18:44.817Z,2.45
2023-02-18T18:21:29.688Z,6.60
2023-02-18T18:23:56.778Z,1.67
2023-02-18T18:26:23.933Z,1.48
2023-02-18T18:28:51.099Z,1.55
2023-02-18T18:31:19.578Z,1.50
2023-02-18T18:33:49.131Z,1.40
2023-02-18T18:36:17.274Z,1.40
2023-02-18T18:38:44.465Z,1.58
2023-02-18T18:41:17.617Z,1.40
2023-02-18T18:43:45.105Z,1.25
2023-02-18T18:46:12.957Z,1.60
2023-02-18T18:48:40.032Z,1.67
2023-02-18T18:51:07.363Z,1.77
2023-02-18T18:53:36.465Z,1.90
2023-02-18T18:56:07.416Z,2.45
2023-02-18T18:58:34.590Z,3.10
2023-02-18T19:01:04.649Z,3.17
2023-02-18T19:03:33.986Z,2.40
2023-02-18T19:06:01.118Z,2.35
2023-02-18T19:08:29.394Z,2.33
2023-02-18T19:10:58.451Z,1.75
2023-02-18T19:13:31.234Z,1.55
2023-02-18T19:16:07.870Z,1.63
2023-02-18T19:18:35.517Z,2.38
2023-02-18T19:21:03.566Z,2.33
2023-02-18T19:23:31.234Z,2.10
2023-02-18T19:25:59.271Z,1.60
2023-02-18T19:28:26.960Z,1.60
2023-02-18T19:30:54.004Z,1.80
2023-02-18T19:33:21.279Z,1.60
2023-02-18T19:35:48.352Z,1.60
2023-02-18T19:38:17.595Z,1.92
2023-02-18T19:40:45.464Z,2.03
2023-02-18T19:43:13.236Z,2.40
2023-02-18T19:45:43.091Z,2.10
2023-02-18T19:48:11.742Z,1.88
2023-02-18T19:50:40.817Z,1.70
2023-02-18T19:53:07.961Z,1.40
2023-02-18T19:55:35.189Z,1.42
2023-02-18T19:58:02.247Z,2.30
2023-02-18T20:00:29.299Z,1.40
2023-02-18T20:02:56.406Z,1.10
2023-02-18T20:05:23.449Z,1.50
2023-02-18T20:07:50.450Z,1.30
2023-02-18T20:10:20.316Z,1.55
2023-02-18T20:12:54.403Z,1.58
2023-02-18T20:15:22.080Z,1.63
2023-02-18T20:17:49.722Z,1.20
2023-02-18T20:20:18.103Z,1.70
2023-02-18T20:22:45.401Z,1.70
2023-02-18T20:25:12.461Z,1.58
2023-02-18T20:27:45.278Z,2.53
2023-02-18T20:30:21.854Z,1.42
2023-02-18T20:32:48.950Z,1.20
2023-02-18T20:35:16.225Z,1.60
2023-02-18T20:37:43.265Z,1.50
2023-02-18T20:40:10.469Z,1.98
2023-02-18T20:42:38.920Z,2.17
2023-02-18T20:45:06.234Z,2.00
2023-02-18T20:47:33.197Z,2.38
2023-02-18T20:50:00.574Z,2.53
2023-02-18T20:52:27.620Z,2.60
2023-02-18T20:54:54.663Z,2.20
2023-02-18T20:57:23.338Z,1.85
2023-02-18T20:59:50.398Z,4.30
2023-02-18T21:02:17.755Z,2.50
2023-02-18T21:04:45.336Z,2.15
2023-02-18T21:07:12.399Z,2.60
2023-02-18T21:09:39.471Z,2.08
2023-02-18T21:12:06.675Z,2.47
2023-02-18T21:14:33.866Z,1.80
2023-02-18T21:17:00.938Z,2.38
2023-02-18T21:19:28.062Z,2.97
2023-02-18T21:21:55.151Z,3.55
2023-02-18T21:24:22.246Z,2.47
2023-02-18T21:26:49.249Z,3.60
2023-02-18T21:29:17.252Z,1.70
2023-02-18T21:31:44.673Z,2.72
2023-02-18T21:34:13.867Z,1.85
2023-02-18T21:36:42.099Z,1.83
2023-02-18T21:39:10.553Z,2.20
2023-02-18T21:41:40.779Z,1.52
2023-02-18T21:44:08.642Z,1.70
2023-02-18T21:46:36.781Z,1.67
2023-02-18T21:49:12.581Z,1.50
2023-02-18T21:51:57.928Z,1.30
2023-02-18T21:54:37.012Z,1.50
2023-02-18T21:57:06.605Z,1.70
2023-02-18T21:59:34.545Z,1.58
2023-02-18T22:02:02.830Z,1.90
2023-02-18T22:04:32.159Z,1.75
2023-02-18T22:06:59.356Z,2.20
2023-02-18T22:09:26.981Z,1.58
2023-02-18T22:11:54.024Z,1.70
2023-02-18T22:14:21.178Z,1.98
2023-02-18T22:16:48.294Z,1.65
2023-02-18T22:19:15.660Z,1.50
2023-02-18T22:21:43.112Z,1.33
2023-02-18T22:24:15.725Z,1.70
2023-02-18T22:26:44.027Z,1.20
2023-02-18T22:29:13.580Z,1.42
2023-02-18T22:31:41.320Z,1.17
2023-02-18T22:34:09.988Z,1.42
2023-02-18T22:36:37.547Z,1.45
2023-02-18T22:39:04.800Z,1.33
2023-02-18T22:41:33.392Z,1.20
2023-02-18T22:44:03.378Z,1.38
2023-02-18T22:46:31.906Z,1.67
2023-02-18T22:49:00.087Z,1.60
2023-02-18T22:51:30.019Z,1.42
2023-02-18T22:53:58.981Z,1.65
2023-02-18T22:56:29.311Z,1.50
2023-02-18T22:58:57.610Z,1.15
2023-02-18T23:01:36.615Z,1.10
2023-02-18T23:04:08.956Z,1.10
2023-02-18T23:06:37.749Z,1.40
2023-02-18T23:09:06.107Z,1.45
2023-02-18T23:11:33.284Z,1.33
2023-02-18T23:14:18.381Z,1.75
2023-02-18T23:17:14.514Z,1.40
2023-02-18T23:19:47.022Z,1.42
2023-02-18T23:22:19.843Z,1.20
2023-02-18T23:24:47.205Z,1.40
2023-02-18T23:27:16.631Z,1.45
2023-02-18T23:29:43.656Z,1.73
2023-02-18T23:32:11.681Z,1.38
2023-02-18T23:34:38.742Z,1.33
2023-02-18T23:37:06.537Z,1.33
2023-02-18T23:39:33.918Z,1.27
2023-02-18T23:42:01.034Z,1.58
2023-02-18T23:44:28.693Z,1.50
2023-02-18T23:46:56.150Z,1.70
2023-02-18T23:49:27.458Z,1.20
2023-02-18T23:51:56.912Z,1.38
2023-02-18T23:54:24.682Z,1.40
2023-02-18T23:56:51.786Z,1.40
2023-02-18T23:59:19.156Z,1.50
